Time;durP1;ratioP1;P1;durP2;ratioP2;P2;SDS_P1;SDS_P2;PMS_P1;PMS_P2;Temp;Humidity;BMP_temperature;BMP_pressure;BME280_temperature;BME280_humidity;BME280_pressure;Samples;Min_cycle;Max_cycle;Signal;HPM_P1;HPM_P2
2023/05/13 00:01:52;;;;;;;7.72;5.85;;;;;;;;;;10044855;28;20056;-65
2023/05/13 00:06:46;;;;;;;20.52;5.95;;;;;;;;;;10046413;28;20136;-65
2023/05/13 00:11:40;;;;;;;9.50;5.50;;;;;;;;;;10055027;28;20080;-65
2023/05/13 00:16:33;;;;;;;8.25;5.72;;;;;;;;;;10038343;28;20076;-65
2023/05/13 00:21:27;;;;;;;8.63;5.90;;;;;;;;;;10031179;28;20076;-65
2023/05/13 00:26:21;;;;;;;6.57;5.97;;;;;;;;;;10036940;28;20090;-65
2023/05/13 00:31:15;;;;;;;9.20;6.00;;;;;;;;;;10029238;28;20049;-65
2023/05/13 00:36:11;;;;;;;8.60;6.40;;;;;;;;;;10030625;28;20449;-65
2023/05/13 00:41:04;;;;;;;11.23;7.43;;;;;;;;;;10029840;28;20081;-65
2023/05/13 00:45:57;;;;;;;11.88;8.48;;;;;;;;;;10016341;28;20155;-65
2023/05/13 00:50:50;;;;;;;14.07;8.90;;;;;;;;;;10035148;28;20049;-64
2023/05/13 00:55:45;;;;;;;11.60;8.40;;;;;;;;;;10042851;28;20080;-64
2023/05/13 01:00:45;;;;;;;11.90;10.15;;;;;;;;;;10029054;28;20571;-64
2023/05/13 01:05:55;;;;;;;12.35;10.90;;;;;;;;;;10035903;28;20042;-64
2023/05/13 01:10:57;;;;;;;10.68;9.63;;;;;;;;;;10027336;28;20053;-65
2023/05/13 01:15:59;;;;;;;12.40;9.80;;;;;;;;;;10027277;28;20038;-65
2023/05/13 01:21:00;;;;;;;11.35;10.25;;;;;;;;;;10035302;28;20049;-65
2023/05/13 01:25:54;;;;;;;12.60;11.27;;;;;;;;;;10027954;28;20153;-65
2023/05/13 01:30:50;;;;;;;13.95;11.45;;;;;;;;;;10025943;28;20072;-65
2023/05/13 01:35:45;;;;;;;16.42;12.23;;;;;;;;;;10028031;28;20054;-65
2023/05/13 01:40:42;;;;;;;12.50;11.20;;;;;;;;;;10037377;28;20493;-64
2023/05/13 01:45:35;;;;;;;17.67;13.93;;;;;;;;;;10027799;28;20081;-64
2023/05/13 01:50:28;;;;;;;15.32;12.52;;;;;;;;;;10030144;28;20400;-64
2023/05/13 01:55:20;;;;;;;14.30;12.20;;;;;;;;;;10026019;28;20065;-65
2023/05/13 02:00:16;;;;;;;14.93;12.82;;;;;;;;;;10036268;28;20141;-64
2023/05/13 02:05:13;;;;;;;15.60;14.05;;;;;;;;;;10028272;28;20050;-64
2023/05/13 02:10:09;;;;;;;22.35;14.43;;;;;;;;;;10043189;28;20132;-64
2023/05/13 02:15:02;;;;;;;18.23;12.80;;;;;;;;;;10026557;28;20076;-65
2023/05/13 02:19:56;;;;;;;19.60;14.73;;;;;;;;;;10026946;28;20405;-65
2023/05/13 02:24:48;;;;;;;19.63;15.52;;;;;;;;;;10036836;28;20132;-65
2023/05/13 02:29:41;;;;;;;19.52;14.00;;;;;;;;;;10026427;28;20044;-66
2023/05/13 02:34:35;;;;;;;22.80;15.45;;;;;;;;;;10028096;28;20054;-65
2023/05/13 02:39:29;;;;;;;18.17;14.95;;;;;;;;;;10037299;28;20492;-65
2023/05/13 02:44:23;;;;;;;18.58;15.10;;;;;;;;;;10024588;28;20064;-65
2023/05/13 02:49:17;;;;;;;16.83;14.02;;;;;;;;;;10028549;28;20420;-65
2023/05/13 02:54:09;;;;;;;17.38;14.50;;;;;;;;;;10028036;28;20062;-65
2023/05/13 02:59:03;;;;;;;17.25;12.68;;;;;;;;;;10040149;28;20761;-65
2023/05/13 03:03:57;;;;;;;14.02;11.90;;;;;;;;;;10033443;28;20050;-66
2023/05/13 03:08:50;;;;;;;14.82;12.65;;;;;;;;;;10046468;28;20046;-65
2023/05/13 03:13:43;;;;;;;32.45;14.52;;;;;;;;;;10035600;28;20049;-65
2023/05/13 03:18:38;;;;;;;20.35;14.13;;;;;;;;;;10008081;28;20061;-65
2023/05/13 03:23:32;;;;;;;19.85;12.90;;;;;;;;;;10050781;28;20053;-65
2023/05/13 03:28:27;;;;;;;16.48;12.70;;;;;;;;;;10031502;28;20602;-65
2023/05/13 03:33:21;;;;;;;19.55;14.60;;;;;;;;;;10032761;28;20523;-65
2023/05/13 03:38:14;;;;;;;24.08;14.43;;;;;;;;;;10039104;28;20050;-65
2023/05/13 03:43:11;;;;;;;28.15;14.50;;;;;;;;;;10045606;28;20050;-65
2023/05/13 03:48:09;;;;;;;29.97;16.60;;;;;;;;;;10035633;28;20152;-65
2023/05/13 03:53:04;;;;;;;22.52;14.82;;;;;;;;;;10032139;28;20469;-65
2023/05/13 03:57:58;;;;;;;28.05;15.13;;;;;;;;;;10030202;28;20081;-66
2023/05/13 04:02:52;;;;;;;23.42;17.77;;;;;;;;;;10030202;28;20156;-64
2023/05/13 04:07:45;;;;;;;33.17;18.38;;;;;;;;;;10028999;28;20052;-65
2023/05/13 04:12:39;;;;;;;23.20;17.60;;;;;;;;;;10033710;28;20057;-65
2023/05/13 04:17:32;;;;;;;26.20;17.90;;;;;;;;;;10030507;28;20104;-65
2023/05/13 04:22:25;;;;;;;25.85;19.27;;;;;;;;;;10030367;28;20046;-64
2023/05/13 04:27:19;;;;;;;33.22;22.08;;;;;;;;;;10045855;28;20050;-65
2023/05/13 04:32:20;;;;;;;41.42;21.73;;;;;;;;;;10030763;28;20473;-66
2023/05/13 04:37:16;;;;;;;31.50;22.10;;;;;;;;;;10033771;28;20061;-65
2023/05/13 04:42:10;;;;;;;35.67;24.52;;;;;;;;;;10008417;28;20047;-65
2023/05/13 04:47:04;;;;;;;36.80;26.50;;;;;;;;;;10044499;28;20054;-66
2023/05/13 04:52:00;;;;;;;37.47;23.48;;;;;;;;;;10032932;28;20500;-65
2023/05/13 04:56:54;;;;;;;32.13;22.05;;;;;;;;;;10039864;28;20046;-65
2023/05/13 05:01:48;;;;;;;33.17;20.38;;;;;;;;;;10052860;28;20476;-63
2023/05/13 05:06:41;;;;;;;34.38;21.13;;;;;;;;;;10052353;28;20058;-65
2023/05/13 05:11:35;;;;;;;35.03;18.27;;;;;;;;;;10032071;28;20046;-64
2023/05/13 05:16:28;;;;;;;24.83;17.35;;;;;;;;;;10029108;28;20481;-65
2023/05/13 05:21:24;;;;;;;22.02;17.20;;;;;;;;;;10026281;28;20057;-68
2023/05/13 05:26:17;;;;;;;28.25;16.70;;;;;;;;;;10030376;28;20050;-66
2023/05/13 05:31:10;;;;;;;28.42;16.60;;;;;;;;;;10032580;28;20050;-66
2023/05/13 05:36:04;;;;;;;28.00;18.42;;;;;;;;;;10036133;28;20046;-66
2023/05/13 05:40:59;;;;;;;29.60;19.85;;;;;;;;;;10026690;28;20052;-65
2023/05/13 05:45:53;;;;;;;30.38;20.98;;;;;;;;;;10027414;28;20046;-65
2023/05/13 05:50:47;;;;;;;30.08;22.65;;;;;;;;;;10010271;28;20483;-64
2023/05/13 05:55:49;;;;;;;33.80;21.73;;;;;;;;;;10033467;28;20731;-64
2023/05/13 06:00:49;;;;;;;40.13;24.50;;;;;;;;;;10038787;28;20073;-64
2023/05/13 06:05:42;;;;;;;39.65;25.40;;;;;;;;;;10031887;28;20564;-65
2023/05/13 06:10:37;;;;;;;35.15;24.50;;;;;;;;;;10026195;28;20046;-64
2023/05/13 06:15:31;;;;;;;32.55;22.80;;;;;;;;;;10015257;28;20045;-64
2023/05/13 06:20:26;;;;;;;35.92;22.40;;;;;;;;;;10027573;28;20100;-66
2023/05/13 06:25:19;;;;;;;33.20;21.92;;;;;;;;;;10025931;28;20188;-64
2023/05/13 06:30:12;;;;;;;33.40;20.95;;;;;;;;;;10007185;28;20048;-65
2023/05/13 06:35:07;;;;;;;36.42;21.17;;;;;;;;;;10046171;28;20468;-66
2023/05/13 06:40:01;;;;;;;29.23;20.67;;;;;;;;;;10028040;28;20137;-65
2023/05/13 06:45:01;;;;;;;29.65;18.77;;;;;;;;;;10039819;28;20053;-68
2023/05/13 06:49:55;;;;;;;29.92;19.58;;;;;;;;;;10035715;28;20053;-67
2023/05/13 06:54:48;;;;;;;28.88;19.30;;;;;;;;;;10039917;28;20065;-67
2023/05/13 06:59:44;;;;;;;31.60;19.83;;;;;;;;;;10044198;28;20060;-66
2023/05/13 07:04:37;;;;;;;31.40;18.20;;;;;;;;;;10022152;28;20078;-65
2023/05/13 07:09:30;;;;;;;28.52;17.20;;;;;;;;;;10028153;28;20416;-66
2023/05/13 07:14:24;;;;;;;27.50;17.33;;;;;;;;;;10028720;28;20049;-65
2023/05/13 07:19:18;;;;;;;24.67;15.48;;;;;;;;;;10025590;28;20466;-69
2023/05/13 07:24:12;;;;;;;22.63;15.85;;;;;;;;;;10036205;28;20050;-65
2023/05/13 07:29:06;;;;;;;20.10;14.75;;;;;;;;;;10027594;28;20501;-65
2023/05/13 07:34:00;;;;;;;20.92;13.32;;;;;;;;;;10028837;28;20072;-66
2023/05/13 07:38:52;;;;;;;16.27;12.35;;;;;;;;;;10025034;28;20065;-66
2023/05/13 07:43:46;;;;;;;16.48;11.65;;;;;;;;;;10028569;28;20505;-67
2023/05/13 07:48:40;;;;;;;19.83;12.10;;;;;;;;;;10048117;28;20054;-66
2023/05/13 07:53:35;;;;;;;13.55;10.18;;;;;;;;;;10034130;28;20053;-64
2023/05/13 07:58:28;;;;;;;13.20;9.75;;;;;;;;;;10025225;28;20045;-72
2023/05/13 08:03:21;;;;;;;13.10;9.93;;;;;;;;;;10028883;28;20456;-68
2023/05/13 08:08:14;;;;;;;16.65;11.00;;;;;;;;;;10027298;28;20742;-66
2023/05/13 08:13:07;;;;;;;17.63;12.95;;;;;;;;;;10022972;28;20374;-67
2023/05/13 08:18:00;;;;;;;17.85;13.25;;;;;;;;;;10027647;28;20081;-67
2023/05/13 08:22:53;;;;;;;16.48;12.25;;;;;;;;;;10024620;28;20508;-69
2023/05/13 08:27:46;;;;;;;23.50;11.65;;;;;;;;;;10021391;28;20041;-68
2023/05/13 08:32:39;;;;;;;13.35;10.40;;;;;;;;;;10031690;28;20054;-67
2023/05/13 08:37:32;;;;;;;10.20;7.72;;;;;;;;;;10024521;28;20079;-73
2023/05/13 08:42:27;;;;;;;13.25;7.53;;;;;;;;;;10025638;28;20050;-72
2023/05/13 08:47:36;;;;;;;9.38;7.40;;;;;;;;;;10028686;28;20104;-69
2023/05/13 08:52:29;;;;;;;;;;;;;;;;;;10028992;28;20073;-71
2023/05/13 08:57:23;;;;;;;11.52;7.25;;;;;;;;;;10035896;28;19921;-69
2023/05/13 09:02:15;;;;;;;8.40;6.95;;;;;;;;;;10028503;28;20066;-70
2023/05/13 09:07:09;;;;;;;11.40;6.18;;;;;;;;;;10025257;28;20046;-70
2023/05/13 09:12:02;;;;;;;7.80;6.95;;;;;;;;;;10030651;28;20575;-72
2023/05/13 09:16:56;;;;;;;8.13;5.95;;;;;;;;;;10031206;28;20489;-73
2023/05/13 09:21:51;;;;;;;11.55;6.18;;;;;;;;;;10034201;28;20104;-75
2023/05/13 09:26:45;;;;;;;6.68;5.00;;;;;;;;;;10029583;28;20081;-73
2023/05/13 09:31:38;;;;;;;9.68;5.97;;;;;;;;;;10030131;28;20069;-73
2023/05/13 09:36:32;;;;;;;10.88;6.10;;;;;;;;;;10029416;28;20128;-73
2023/05/13 09:41:30;;;;;;;7.03;6.03;;;;;;;;;;10028369;28;20054;-71
2023/05/13 09:46:24;;;;;;;13.50;5.82;;;;;;;;;;10029609;28;20049;-72
2023/05/13 09:51:18;;;;;;;9.32;6.38;;;;;;;;;;10028905;28;20053;-71
2023/05/13 09:56:11;;;;;;;11.13;5.32;;;;;;;;;;10037192;28;20046;-68
2023/05/13 10:01:05;;;;;;;6.97;5.85;;;;;;;;;;10039571;28;20108;-68
2023/05/13 10:06:00;;;;;;;6.47;5.80;;;;;;;;;;10005218;28;20116;-68
2023/05/13 10:10:56;;;;;;;8.48;5.90;;;;;;;;;;10024143;28;20062;-68
2023/05/13 10:15:51;;;;;;;6.20;4.47;;;;;;;;;;10025041;28;20050;-68
2023/05/13 10:20:46;;;;;;;6.55;4.28;;;;;;;;;;10036635;28;20057;-68
2023/05/13 10:25:42;;;;;;;6.88;3.40;;;;;;;;;;10027204;28;20480;-67
2023/05/13 10:30:35;;;;;;;4.90;3.63;;;;;;;;;;10034437;28;20077;-68
2023/05/13 10:35:31;;;;;;;3.97;3.53;;;;;;;;;;10020700;28;20078;-68
2023/05/13 10:41:07;;;;;;;8.00;2.95;;;;;;;;;;10020032;28;20112;-68
2023/05/13 10:46:05;;;;;;;4.88;3.22;;;;;;;;;;10019184;28;20052;-68
2023/05/13 10:51:06;;;;;;;7.18;3.15;;;;;;;;;;10017562;28;20057;-67
2023/05/13 10:56:00;;;;;;;4.93;3.70;;;;;;;;;;10013524;28;20050;-68
2023/05/13 11:00:52;;;;;;;6.13;3.13;;;;;;;;;;10012734;28;20060;-67
2023/05/13 11:05:59;;;;;;;4.30;2.75;;;;;;;;;;10037228;28;20466;-68
2023/05/13 11:10:54;;;;;;;5.68;2.55;;;;;;;;;;10019155;28;20507;-67
2023/05/13 11:15:54;;;;;;;2.30;2.08;;;;;;;;;;10026309;28;20046;-66
2023/05/13 11:20:52;;;;;;;5.28;2.25;;;;;;;;;;10031603;28;20038;-72
2023/05/13 11:25:46;;;;;;;4.88;2.67;;;;;;;;;;10037060;28;20136;-65
2023/05/13 11:30:40;;;;;;;4.50;2.45;;;;;;;;;;10038834;28;20053;-64
2023/05/13 11:35:34;;;;;;;5.07;2.25;;;;;;;;;;10031815;28;20060;-64
2023/05/13 11:40:29;;;;;;;6.38;2.40;;;;;;;;;;10035432;28;20464;-65
2023/05/13 11:45:24;;;;;;;3.33;1.75;;;;;;;;;;10034594;28;20057;-64
2023/05/13 11:50:21;;;;;;;4.40;2.78;;;;;;;;;;10036456;28;20046;-64
2023/05/13 11:55:30;;;;;;;4.50;1.65;;;;;;;;;;10039654;28;20479;-64
2023/05/13 12:00:52;;;;;;;3.08;1.60;;;;;;;;;;10034472;28;20042;-65
2023/05/13 12:05:45;;;;;;;4.82;2.78;;;;;;;;;;10032144;28;20073;-66
2023/05/13 12:10:42;;;;;;;3.65;1.38;;;;;;;;;;10044096;28;20050;-65
2023/05/13 12:15:36;;;;;;;;;;;;;;;;;;10029225;28;20052;-66
2023/05/13 12:20:29;;;;;;;3.38;1.40;;;;;;;;;;10038050;28;19921;-65
2023/05/13 12:25:35;;;;;;;4.80;1.20;;;;;;;;;;10034079;28;20057;-64
2023/05/13 12:30:34;;;;;;;3.15;1.73;;;;;;;;;;10033014;28;20050;-65
2023/05/13 12:35:28;;;;;;;2.33;1.42;;;;;;;;;;10034330;28;20049;-62
2023/05/13 12:40:26;;;;;;;2.15;1.10;;;;;;;;;;10022939;28;20049;-61
2023/05/13 12:45:20;;;;;;;3.05;1.95;;;;;;;;;;10034812;28;20057;-62
2023/05/13 12:50:15;;;;;;;3.35;1.55;;;;;;;;;;10027715;28;20042;-62
2023/05/13 12:55:08;;;;;;;5.45;1.20;;;;;;;;;;10034624;28;20081;-63
2023/05/13 13:00:02;;;;;;;1.58;1.20;;;;;;;;;;10019655;28;20050;-63
2023/05/13 13:04:56;;;;;;;1.92;0.90;;;;;;;;;;10031792;28;20468;-63
2023/05/13 13:09:50;;;;;;;4.82;1.05;;;;;;;;;;10025501;28;20051;-64
2023/05/13 13:14:44;;;;;;;0.70;0.70;;;;;;;;;;10030626;28;20064;-64
2023/05/13 13:19:37;;;;;;;8.52;1.88;;;;;;;;;;10027545;28;20454;-63
2023/05/13 13:24:31;;;;;;;1.00;0.50;;;;;;;;;;10026235;28;20050;-63
2023/05/13 13:29:25;;;;;;;2.35;0.98;;;;;;;;;;10026329;28;20068;-63
2023/05/13 13:34:19;;;;;;;1.15;0.70;;;;;;;;;;10028206;28;20050;-63
2023/05/13 13:39:13;;;;;;;2.17;0.60;;;;;;;;;;10028250;28;20052;-63
2023/05/13 13:44:08;;;;;;;2.28;0.57;;;;;;;;;;10022236;28;20132;-63
2023/05/13 13:49:01;;;;;;;1.80;0.57;;;;;;;;;;10020001;28;20042;-63
2023/05/13 13:54:09;;;;;;;1.30;0.70;;;;;;;;;;10040937;28;20093;-63
2023/05/13 13:59:02;;;;;;;4.03;0.93;;;;;;;;;;10022491;28;20065;-63
2023/05/13 14:04:22;;;;;;;4.05;1.00;;;;;;;;;;10018415;28;20408;-63
2023/05/13 14:09:16;;;;;;;1.95;0.73;;;;;;;;;;10017318;28;20650;-62
2023/05/13 14:14:09;;;;;;;1.25;0.80;;;;;;;;;;10025176;28;20052;-71
2023/05/13 14:19:03;;;;;;;8.63;1.38;;;;;;;;;;10023349;28;20045;-68
2023/05/13 14:23:56;;;;;;;2.28;1.40;;;;;;;;;;10030507;28;20432;-66
2023/05/13 14:28:49;;;;;;;1.77;0.98;;;;;;;;;;10030817;28;20054;-66
2023/05/13 14:33:42;;;;;;;3.83;1.17;;;;;;;;;;10031798;28;20133;-66
2023/05/13 14:38:36;;;;;;;2.63;1.20;;;;;;;;;;10033397;28;20240;-66
2023/05/13 14:43:29;;;;;;;1.75;1.10;;;;;;;;;;10029408;28;20073;-66
2023/05/13 14:48:22;;;;;;;1.92;1.00;;;;;;;;;;10030727;28;20404;-66
2023/05/13 14:53:17;;;;;;;3.53;1.65;;;;;;;;;;10040177;28;20085;-66
2023/05/13 14:58:11;;;;;;;3.25;1.38;;;;;;;;;;10032064;28;20076;-65
2023/05/13 15:03:06;;;;;;;3.70;1.55;;;;;;;;;;10029465;28;20076;-65
2023/05/13 15:08:00;;;;;;;1.40;1.10;;;;;;;;;;10037247;28;20386;-66
2023/05/13 15:12:52;;;;;;;2.60;1.25;;;;;;;;;;10037613;28;20072;-67
2023/05/13 15:17:45;;;;;;;2.35;1.90;;;;;;;;;;10031852;28;20072;-66
2023/05/13 15:22:39;;;;;;;6.65;1.23;;;;;;;;;;10032804;28;20064;-62
2023/05/13 15:27:33;;;;;;;1.23;0.90;;;;;;;;;;10037385;28;20124;-62
2023/05/13 15:32:27;;;;;;;3.40;1.33;;;;;;;;;;10050582;28;20068;-60
2023/05/13 15:37:20;;;;;;;2.45;0.90;;;;;;;;;;10042762;28;20102;-60
2023/05/13 15:42:14;;;;;;;1.48;1.00;;;;;;;;;;10039892;28;20038;-60
2023/05/13 15:47:07;;;;;;;1.70;0.90;;;;;;;;;;10033306;28;20504;-60
2023/05/13 15:52:02;;;;;;;1.83;0.80;;;;;;;;;;10048991;28;20058;-60
2023/05/13 15:56:59;;;;;;;3.53;1.05;;;;;;;;;;10033829;28;20053;-60
2023/05/13 16:01:52;;;;;;;2.10;1.17;;;;;;;;;;10028004;28;20066;-60
2023/05/13 16:06:46;;;;;;;0.88;0.85;;;;;;;;;;10024563;28;20069;-61
2023/05/13 16:11:42;;;;;;;1.40;1.00;;;;;;;;;;10020282;28;20497;-61
2023/05/13 16:16:37;;;;;;;5.90;1.08;;;;;;;;;;10028490;28;20038;-62
2023/05/13 16:21:30;;;;;;;2.28;1.23;;;;;;;;;;10030163;28;20053;-62
2023/05/13 16:26:23;;;;;;;4.60;1.15;;;;;;;;;;10028166;28;20054;-61
2023/05/13 16:31:17;;;;;;;1.55;1.20;;;;;;;;;;10027645;28;20504;-61
2023/05/13 16:36:11;;;;;;;1.23;1.13;;;;;;;;;;10019484;28;20066;-61
2023/05/13 16:41:05;;;;;;;1.15;1.05;;;;;;;;;;10013982;28;20046;-62
2023/05/13 16:45:58;;;;;;;1.98;1.00;;;;;;;;;;10039522;28;20409;-60
2023/05/13 16:50:52;;;;;;;3.80;1.13;;;;;;;;;;10040364;28;20065;-62
2023/05/13 16:55:45;;;;;;;1.63;1.00;;;;;;;;;;10044458;28;20474;-62
2023/05/13 17:00:39;;;;;;;1.77;1.25;;;;;;;;;;10034719;28;20050;-62
2023/05/13 17:05:35;;;;;;;3.00;1.35;;;;;;;;;;10043866;28;20050;-62
2023/05/13 17:10:28;;;;;;;2.63;1.02;;;;;;;;;;10028138;28;20050;-61
2023/05/13 17:15:22;;;;;;;5.13;1.23;;;;;;;;;;10021615;28;20165;-61
2023/05/13 17:20:18;;;;;;;3.38;1.45;;;;;;;;;;10032545;28;20664;-62
2023/05/13 17:25:12;;;;;;;3.38;1.17;;;;;;;;;;10049977;28;20132;-61
2023/05/13 17:30:06;;;;;;;2.38;1.00;;;;;;;;;;10028480;28;20054;-62
2023/05/13 17:34:59;;;;;;;1.55;1.17;;;;;;;;;;10032764;28;20053;-62
2023/05/13 17:39:53;;;;;;;6.65;1.55;;;;;;;;;;10042668;28;20523;-62
2023/05/13 17:44:51;;;;;;;2.90;1.77;;;;;;;;;;10037336;28;20057;-63
2023/05/13 17:49:45;;;;;;;1.63;1.52;;;;;;;;;;10053321;28;20083;-63
2023/05/13 17:54:39;;;;;;;1.90;1.50;;;;;;;;;;10042600;28;20100;-63
2023/05/13 17:59:32;;;;;;;2.97;1.88;;;;;;;;;;10031684;28;20096;-63
2023/05/13 18:04:26;;;;;;;2.80;1.73;;;;;;;;;;10033908;28;20505;-63
2023/05/13 18:09:20;;;;;;;3.50;2.35;;;;;;;;;;10045504;28;20125;-62
2023/05/13 18:14:13;;;;;;;3.28;1.45;;;;;;;;;;10033471;28;20057;-63
2023/05/13 18:19:06;;;;;;;3.55;2.58;;;;;;;;;;10026875;28;20053;-63
2023/05/13 18:24:00;;;;;;;4.88;1.85;;;;;;;;;;10022311;28;20085;-63
2023/05/13 18:28:54;;;;;;;5.57;1.80;;;;;;;;;;10030967;28;20061;-63
2023/05/13 18:33:48;;;;;;;4.22;2.20;;;;;;;;;;10031241;28;20050;-63
2023/05/13 18:38:41;;;;;;;3.00;2.30;;;;;;;;;;10042212;28;20060;-63
2023/05/13 18:43:35;;;;;;;4.85;2.22;;;;;;;;;;10044729;28;20061;-62
2023/05/13 18:48:28;;;;;;;3.15;2.22;;;;;;;;;;10026401;28;20050;-62
2023/05/13 18:53:22;;;;;;;5.25;2.28;;;;;;;;;;10032487;28;20056;-62
2023/05/13 18:58:16;;;;;;;5.10;2.47;;;;;;;;;;10036709;28;20073;-62
2023/05/13 19:03:09;;;;;;;3.55;2.30;;;;;;;;;;10010723;28;20056;-62
2023/05/13 19:08:07;;;;;;;3.45;1.85;;;;;;;;;;10000515;28;20050;-66
2023/05/13 19:12:59;;;;;;;4.88;2.55;;;;;;;;;;10017174;28;20054;-62
2023/05/13 19:17:54;;;;;;;4.88;2.13;;;;;;;;;;10016820;28;20076;-61
2023/05/13 19:22:48;;;;;;;6.28;3.42;;;;;;;;;;10014607;28;20057;-63
2023/05/13 19:27:43;;;;;;;3.42;2.38;;;;;;;;;;10018007;28;20497;-63
2023/05/13 19:32:36;;;;;;;3.30;2.40;;;;;;;;;;10015398;28;20050;-62
2023/05/13 19:37:30;;;;;;;5.55;2.28;;;;;;;;;;10017985;28;20046;-62
2023/05/13 19:42:22;;;;;;;2.38;2.03;;;;;;;;;;10028059;28;20497;-62
2023/05/13 19:47:16;;;;;;;4.20;2.33;;;;;;;;;;10030575;28;20053;-62
2023/05/13 19:52:09;;;;;;;4.50;1.80;;;;;;;;;;10026081;28;20137;-61
2023/05/13 19:57:02;;;;;;;2.72;1.92;;;;;;;;;;10027073;28;20045;-62
2023/05/13 20:01:56;;;;;;;5.50;2.80;;;;;;;;;;10023731;28;20053;-62
2023/05/13 20:06:49;;;;;;;6.25;2.60;;;;;;;;;;10025540;28;20505;-62
2023/05/13 20:11:44;;;;;;;2.67;2.13;;;;;;;;;;10021192;28;20089;-61
2023/05/13 20:16:37;;;;;;;2.97;2.22;;;;;;;;;;10022086;28;20049;-60
2023/05/13 20:21:31;;;;;;;5.35;3.60;;;;;;;;;;10017392;28;20046;-61
2023/05/13 20:26:26;;;;;;;3.45;2.90;;;;;;;;;;10017604;28;20061;-61
2023/05/13 20:31:19;;;;;;;5.88;3.53;;;;;;;;;;10017899;28;20142;-62
2023/05/13 20:36:13;;;;;;;6.65;2.70;;;;;;;;;;10016532;28;20093;-62
2023/05/13 20:41:08;;;;;;;2.72;2.35;;;;;;;;;;10034744;28;20061;-63
2023/05/13 20:46:03;;;;;;;3.53;2.63;;;;;;;;;;10018336;28;20037;-62
2023/05/13 20:51:03;;;;;;;3.42;2.40;;;;;;;;;;10009474;28;20136;-62
2023/05/13 20:55:57;;;;;;;5.93;1.88;;;;;;;;;;10003078;28;20050;-63
2023/05/13 21:00:52;;;;;;;2.72;1.88;;;;;;;;;;10005252;28;20064;-62
2023/05/13 21:05:46;;;;;;;3.33;2.40;;;;;;;;;;10019145;28;20464;-63
2023/05/13 21:10:39;;;;;;;6.65;2.80;;;;;;;;;;10025917;28;20436;-63
2023/05/13 21:15:34;;;;;;;4.72;2.67;;;;;;;;;;10028403;28;20086;-63
2023/05/13 21:20:28;;;;;;;6.63;2.22;;;;;;;;;;10028955;28;20053;-62
2023/05/13 21:25:21;;;;;;;6.38;2.13;;;;;;;;;;10031954;28;20055;-62
2023/05/13 21:30:15;;;;;;;5.53;2.47;;;;;;;;;;10030544;28;20392;-62
2023/05/13 21:35:09;;;;;;;4.50;2.50;;;;;;;;;;10032273;28;20049;-63
2023/05/13 21:40:04;;;;;;;3.95;2.60;;;;;;;;;;10031940;28;20534;-63
2023/05/13 21:44:57;;;;;;;3.35;2.05;;;;;;;;;;10038950;28;20080;-62
2023/05/13 21:49:51;;;;;;;10.13;2.28;;;;;;;;;;10051953;28;20117;-63
2023/05/13 21:54:44;;;;;;;4.60;3.33;;;;;;;;;;10053382;28;20074;-62
2023/05/13 21:59:39;;;;;;;6.80;3.13;;;;;;;;;;10046853;28;20050;-62
2023/05/13 22:04:33;;;;;;;4.38;3.03;;;;;;;;;;10039320;28;20050;-63
2023/05/13 22:09:27;;;;;;;4.95;3.13;;;;;;;;;;10032206;28;20053;-62
2023/05/13 22:14:20;;;;;;;5.57;3.63;;;;;;;;;;10048750;28;20452;-63
2023/05/13 22:19:13;;;;;;;5.95;3.40;;;;;;;;;;10043944;28;20119;-62
2023/05/13 22:24:07;;;;;;;4.63;3.40;;;;;;;;;;10031019;28;20100;-63
2023/05/13 22:29:00;;;;;;;6.20;3.40;;;;;;;;;;10039005;28;20045;-63
2023/05/13 22:33:54;;;;;;;4.88;3.28;;;;;;;;;;10040035;28;20046;-63
2023/05/13 22:38:48;;;;;;;5.00;4.07;;;;;;;;;;10036805;28;20103;-62
2023/05/13 22:43:41;;;;;;;5.05;3.55;;;;;;;;;;10053943;28;20052;-63
2023/05/13 22:48:35;;;;;;;4.25;3.88;;;;;;;;;;10038661;28;20082;-63
2023/05/13 22:53:28;;;;;;;4.43;3.75;;;;;;;;;;10027566;28;20054;-62
2023/05/13 22:58:21;;;;;;;6.82;5.45;;;;;;;;;;10044166;28;20042;-63
2023/05/13 23:03:15;;;;;;;4.93;4.53;;;;;;;;;;10028210;28;20096;-63
2023/05/13 23:08:07;;;;;;;5.22;4.72;;;;;;;;;;10026103;28;20092;-62
2023/05/13 23:13:04;;;;;;;7.18;5.03;;;;;;;;;;10044503;28;20054;-63
2023/05/13 23:17:57;;;;;;;7.43;5.57;;;;;;;;;;10038978;28;20508;-62
2023/05/13 23:22:51;;;;;;;7.82;4.30;;;;;;;;;;10022607;28;20066;-62
2023/05/13 23:27:45;;;;;;;5.93;4.30;;;;;;;;;;10027419;28;20425;-62
2023/05/13 23:32:39;;;;;;;6.13;4.18;;;;;;;;;;10031183;28;20083;-62
2023/05/13 23:37:32;;;;;;;5.90;5.40;;;;;;;;;;10034696;28;20053;-62
2023/05/13 23:42:26;;;;;;;6.93;4.85;;;;;;;;;;10029866;28;20054;-62
2023/05/13 23:47:20;;;;;;;5.28;4.00;;;;;;;;;;10036309;28;20496;-62
2023/05/13 23:52:13;;;;;;;4.75;2.88;;;;;;;;;;10047600;28;20054;-62
2023/05/13 23:57:06;;;;;;;4.03;3.63;;;;;;;;;;10030207;28;20536;-62
